createdAt,value
2019-01-02T00:01:07.100Z,65.17
2019-01-02T00:03:37.316Z,63.48
2019-01-02T00:06:08.447Z,62.38
2019-01-02T00:08:38.753Z,60.73
2019-01-02T00:11:09.087Z,63.58
2019-01-02T00:13:39.591Z,59.63
2019-01-02T00:16:09.847Z,59.65
2019-01-02T00:18:40.449Z,58.98
2019-01-02T00:21:10.700Z,58.78
2019-01-02T00:23:40.949Z,59.98
2019-01-02T00:26:11.160Z,57.95
2019-01-02T00:28:41.403Z,57.70
2019-01-02T00:31:11.902Z,57.45
2019-01-02T00:33:42.166Z,57.25
2019-01-02T00:36:12.657Z,55.55
2019-01-02T00:38:42.975Z,54.35
2019-01-02T00:41:13.473Z,54.48
2019-01-02T00:43:43.712Z,53.08
2019-01-02T00:46:14.438Z,53.90
2019-01-02T00:48:44.674Z,52.95
2019-01-02T00:51:14.938Z,52.13
2019-01-02T00:53:45.168Z,53.23
2019-01-02T00:56:15.796Z,52.62
2019-01-02T00:58:46.024Z,51.53
2019-01-02T01:01:16.280Z,49.40
2019-01-02T01:03:46.511Z,50.35
2019-01-02T01:06:16.833Z,49.50
2019-01-02T01:08:47.085Z,49.45
2019-01-02T01:11:17.308Z,48.63
2019-01-02T01:13:47.555Z,48.48
2019-01-02T01:16:17.776Z,48.48
2019-01-02T01:18:48.019Z,47.67
2019-01-02T01:21:18.242Z,48.10
2019-01-02T01:23:48.967Z,47.10
2019-01-02T01:26:19.197Z,46.00
2019-01-02T01:28:49.816Z,45.88
2019-01-02T01:31:20.034Z,45.33
2019-01-02T01:33:50.287Z,44.03
2019-01-02T01:36:20.934Z,44.88
2019-01-02T01:38:51.161Z,42.83
2019-01-02T01:41:21.415Z,42.35
2019-01-02T01:43:52.021Z,43.25
2019-01-02T01:46:22.271Z,42.83
2019-01-02T01:48:52.870Z,41.92
2019-01-02T01:51:23.186Z,40.92
2019-01-02T01:53:53.417Z,40.15
2019-01-02T01:56:24.336Z,41.50
2019-01-02T01:58:54.579Z,40.48
2019-01-02T02:01:24.860Z,39.80
2019-01-02T02:03:55.287Z,39.58
2019-01-02T02:06:25.516Z,38.98
2019-01-02T02:08:55.753Z,39.23
2019-01-02T02:11:26.012Z,39.25
2019-01-02T02:13:56.237Z,37.78
2019-01-02T02:16:26.866Z,39.13
2019-01-02T02:18:57.096Z,37.88
2019-01-02T02:21:27.347Z,36.58
2019-01-02T02:23:58.013Z,36.15
2019-01-02T02:26:28.236Z,35.52
2019-01-02T02:28:58.478Z,34.95
2019-01-02T02:31:28.700Z,35.43
2019-01-02T02:33:59.224Z,34.33
2019-01-02T02:36:29.811Z,35.25
2019-01-02T02:39:00.436Z,34.98
2019-01-02T02:41:32.607Z,35.68
2019-01-02T02:44:03.631Z,33.45
2019-01-02T02:46:34.334Z,33.02
2019-01-02T02:49:04.607Z,32.80
2019-01-02T02:51:35.101Z,32.30
2019-01-02T02:54:05.723Z,33.50
2019-01-02T02:56:36.324Z,33.10
2019-01-02T02:59:07.078Z,32.10
2019-01-02T03:01:37.682Z,31.75
2019-01-02T03:04:08.419Z,30.60
2019-01-02T03:06:39.175Z,32.00
2019-01-02T03:09:10.539Z,30.43
2019-01-02T03:11:40.757Z,29.87
2019-01-02T03:14:10.998Z,30.55
2019-01-02T03:16:41.495Z,29.42
2019-01-02T03:19:12.091Z,29.75
2019-01-02T03:21:42.487Z,28.75
2019-01-02T03:24:13.119Z,28.47
2019-01-02T03:26:43.334Z,27.62
2019-01-02T03:29:13.648Z,26.77
2019-01-02T03:31:44.168Z,28.23
2019-01-02T03:34:14.766Z,27.05
2019-01-02T03:36:45.060Z,27.32
2019-01-02T03:39:15.282Z,27.40
2019-01-02T03:41:45.522Z,24.85
2019-01-02T03:44:16.865Z,26.20
2019-01-02T03:46:47.091Z,24.90
2019-01-02T03:49:17.587Z,24.98
2019-01-02T03:51:47.881Z,24.87
2019-01-02T03:54:18.500Z,25.72
2019-01-02T03:56:48.725Z,26.35
2019-01-02T03:59:19.019Z,26.55
2019-01-02T04:01:49.243Z,27.10
2019-01-02T04:04:19.461Z,36.40
2019-01-02T04:06:49.732Z,53.40
2019-01-02T04:09:20.022Z,53.08
2019-01-02T04:11:50.295Z,60.67
2019-01-02T04:14:20.567Z,55.50
2019-01-02T04:16:50.811Z,54.88
2019-01-02T04:19:21.146Z,54.58
2019-01-02T04:21:51.386Z,55.60
2019-01-02T04:24:21.655Z,54.83
2019-01-02T04:26:51.897Z,55.88
2019-01-02T04:29:22.375Z,56.88
2019-01-02T04:31:52.605Z,55.92
2019-01-02T04:34:22.863Z,55.38
2019-01-02T04:36:53.157Z,54.65
2019-01-02T04:39:23.427Z,54.63
2019-01-02T04:41:53.681Z,54.08
2019-01-02T04:44:23.978Z,55.05
2019-01-02T04:46:55.294Z,53.58
2019-01-02T04:49:25.580Z,55.03
2019-01-02T04:51:55.835Z,54.45
2019-01-02T04:54:26.056Z,54.93
2019-01-02T04:56:56.305Z,53.70
2019-01-02T04:59:26.601Z,54.53
2019-01-02T05:01:56.832Z,55.48
2019-01-02T05:04:27.086Z,56.53
2019-01-02T05:06:57.318Z,54.05
2019-01-02T05:09:27.607Z,54.90
2019-01-02T05:11:57.854Z,52.50
2019-01-02T05:14:28.107Z,54.75
2019-01-02T05:16:59.418Z,53.58
2019-01-02T05:19:29.687Z,54.23
2019-01-02T05:21:59.909Z,53.75
2019-01-02T05:24:30.768Z,53.75
2019-01-02T05:27:01.002Z,53.28
2019-01-02T05:29:31.262Z,54.10
2019-01-02T05:32:01.496Z,53.68
2019-01-02T05:34:31.744Z,56.30
2019-01-02T05:37:01.998Z,54.25
2019-01-02T05:39:32.221Z,52.35
2019-01-02T05:42:02.482Z,53.08
2019-01-02T05:44:32.706Z,54.08
2019-01-02T05:47:02.948Z,54.90
2019-01-02T05:49:33.170Z,51.05
2019-01-02T05:52:03.498Z,51.35
2019-01-02T05:54:33.744Z,52.95
2019-01-02T05:57:03.981Z,50.63
2019-01-02T05:59:34.231Z,50.98
2019-01-02T06:02:05.153Z,51.40
2019-01-02T06:04:35.472Z,54.67
2019-01-02T06:07:05.722Z,62.67
2019-01-02T06:09:35.958Z,55.80
2019-01-02T06:12:06.224Z,59.98
2019-01-02T06:14:36.451Z,60.50
2019-01-02T06:17:06.699Z,67.97
2019-01-02T06:19:36.968Z,59.10
2019-01-02T06:22:07.205Z,61.50
2019-01-02T06:24:37.472Z,61.92
2019-01-02T06:27:07.746Z,66.40
2019-01-02T06:29:38.002Z,67.15
2019-01-02T06:32:08.256Z,66.97
2019-01-02T06:34:38.589Z,63.08
2019-01-02T06:37:09.173Z,63.40
2019-01-02T06:39:39.390Z,62.08
2019-01-02T06:42:09.676Z,57.25
2019-01-02T06:44:39.890Z,56.13
2019-01-02T06:47:10.156Z,55.92
2019-01-02T06:49:40.378Z,54.25
2019-01-02T06:52:10.643Z,56.33
2019-01-02T06:54:40.946Z,55.63
2019-01-02T06:57:11.508Z,54.23
2019-01-02T06:59:41.756Z,57.20
2019-01-02T07:02:11.989Z,56.35
2019-01-02T07:04:42.253Z,56.80
2019-01-02T07:07:12.506Z,55.95
2019-01-02T07:09:42.745Z,55.23
2019-01-02T07:12:13.011Z,55.03
2019-01-02T07:14:43.238Z,53.28
2019-01-02T07:17:13.507Z,53.98
2019-01-02T07:19:43.812Z,52.38
2019-01-02T07:22:14.094Z,51.85
2019-01-02T07:24:44.319Z,49.25
2019-01-02T07:27:14.592Z,52.60
2019-01-02T07:29:44.848Z,51.23
2019-01-02T07:32:15.078Z,51.35
2019-01-02T07:35:21.169Z,54.95
2019-01-02T07:38:19.418Z,53.80
2019-01-02T07:41:34.217Z,52.80
2019-01-02T07:44:41.281Z,60.90
2019-01-02T07:47:57.391Z,64.67
2019-01-02T07:51:30.297Z,65.87
2019-01-02T07:54:56.532Z,62.62
2019-01-02T07:58:06.848Z,66.82
2019-01-02T08:01:05.877Z,67.62
2019-01-02T08:04:16.676Z,67.10
2019-01-02T08:07:24.023Z,71.17
2019-01-02T08:10:44.156Z,67.65
2019-01-02T08:13:50.594Z,66.10
2019-01-02T08:16:59.609Z,67.92
2019-01-02T08:19:58.679Z,66.00
2019-01-02T08:22:57.889Z,64.85
2019-01-02T08:25:50.522Z,65.37
2019-01-02T08:28:52.589Z,64.10
2019-01-02T08:31:46.515Z,62.62
2019-01-02T08:34:51.125Z,61.75
2019-01-02T08:37:47.216Z,61.85
2019-01-02T08:40:59.757Z,60.50
2019-01-02T08:43:54.082Z,60.35
2019-01-02T08:47:23.615Z,60.65
2019-01-02T08:50:36.906Z,59.55
2019-01-02T08:53:36.830Z,56.80
2019-01-02T08:56:50.227Z,57.90
2019-01-02T09:00:19.654Z,54.30
2019-01-02T09:03:16.478Z,52.88
2019-01-02T09:06:52.420Z,52.13
2019-01-02T09:10:00.525Z,49.83
2019-01-02T09:13:00.018Z,50.58
2019-01-02T09:16:04.367Z,50.25
2019-01-02T09:19:06.305Z,48.25
2019-01-02T09:22:16.509Z,48.48
2019-01-02T09:25:21.072Z,47.85
2019-01-02T09:28:17.610Z,48.17
2019-01-02T09:31:27.497Z,48.02
2019-01-02T09:34:48.017Z,44.58
2019-01-02T09:37:52.021Z,41.15
2019-01-02T09:40:44.384Z,40.92
2019-01-02T09:43:42.777Z,40.63
2019-01-02T09:47:21.992Z,39.25
2019-01-02T09:50:42.436Z,38.23
2019-01-02T09:53:38.230Z,36.83
2019-01-02T09:56:57.365Z,36.45
2019-01-02T10:00:17.410Z,35.13
2019-01-02T10:03:19.679Z,32.28
2019-01-02T10:06:17.847Z,33.05
2019-01-02T10:09:10.813Z,33.20
2019-01-02T10:12:37.231Z,34.13
2019-01-02T10:15:43.137Z,31.77
2019-01-02T10:21:27.514Z,31.15
2019-01-02T10:24:47.610Z,30.97
2019-01-02T10:28:14.524Z,30.23
2019-01-02T10:31:33.669Z,29.27
2019-01-02T10:34:49.859Z,27.15
2019-01-02T10:37:32.815Z,27.30
2019-01-02T10:40:42.727Z,28.35
2019-01-02T10:43:45.929Z,26.52
2019-01-02T10:46:55.865Z,26.42
2019-01-02T10:50:01.536Z,25.15
2019-01-02T10:53:19.404Z,26.02
2019-01-02T10:56:21.166Z,25.17
2019-01-02T10:59:29.662Z,24.02
2019-01-02T11:02:22.697Z,24.35
2019-01-02T11:05:22.638Z,23.25
2019-01-02T11:08:26.319Z,23.55
2019-01-02T11:11:48.774Z,23.83
2019-01-02T11:14:57.986Z,23.00
2019-01-02T11:18:21.436Z,22.58
2019-01-02T11:21:35.766Z,22.07
2019-01-02T11:24:48.751Z,22.73
2019-01-02T11:27:45.394Z,21.80
2019-01-02T11:30:30.795Z,21.23
2019-01-02T11:33:45.728Z,21.57
2019-01-02T11:37:00.638Z,20.88
2019-01-02T11:40:07.736Z,20.72
2019-01-02T11:43:40.449Z,21.15
2019-01-02T11:46:10.708Z,20.30
2019-01-02T11:48:40.961Z,19.57
2019-01-02T11:51:11.321Z,20.70
2019-01-02T11:53:41.567Z,19.05
2019-01-02T11:56:11.836Z,19.23
2019-01-02T11:58:42.084Z,18.17
2019-01-02T12:01:12.330Z,18.55
2019-01-02T12:03:42.677Z,18.55
2019-01-02T12:06:12.978Z,17.90
2019-01-02T12:08:43.210Z,18.30
2019-01-02T12:11:13.456Z,17.75
2019-01-02T12:13:43.695Z,19.17
2019-01-02T12:16:13.926Z,17.05
2019-01-02T12:18:44.227Z,17.52
2019-01-02T12:21:14.470Z,17.12
2019-01-02T12:23:45.022Z,15.32
2019-01-02T12:26:15.322Z,16.30
2019-01-02T12:28:45.590Z,16.17
2019-01-02T12:31:15.854Z,16.55
2019-01-02T12:33:46.114Z,15.90
2019-01-02T12:36:16.413Z,16.35
2019-01-02T12:38:46.649Z,15.25
2019-01-02T12:41:16.952Z,15.48
2019-01-02T12:43:47.239Z,15.78
2019-01-02T12:46:17.529Z,14.60
2019-01-02T12:48:47.832Z,14.98
2019-01-02T12:51:19.403Z,14.35
2019-01-02T12:53:49.662Z,13.70
2019-01-02T12:56:20.054Z,14.28
2019-01-02T12:58:50.316Z,13.48
2019-01-02T13:01:56.585Z,12.93
2019-01-02T13:04:54.714Z,12.98
2019-01-02T13:08:04.807Z,13.03
2019-01-02T13:11:01.527Z,12.75
2019-01-02T13:14:21.129Z,13.53
2019-01-02T13:17:27.311Z,12.80
2019-01-02T13:20:21.281Z,13.05
2019-01-02T13:23:23.296Z,12.88
2019-01-02T13:26:18.289Z,12.45
2019-01-02T13:29:44.903Z,12.47
2019-01-02T13:32:43.126Z,12.05
2019-01-02T13:35:49.335Z,11.38
2019-01-02T13:38:49.287Z,12.23
2019-01-02T13:41:47.856Z,11.43
2019-01-02T13:44:57.620Z,11.03
2019-01-02T13:48:04.540Z,11.60
2019-01-02T13:50:43.381Z,10.93
2019-01-02T13:53:14.553Z,10.63
2019-01-02T13:55:44.868Z,11.60
2019-01-02T13:58:15.215Z,10.72
2019-01-02T14:00:45.551Z,11.12
2019-01-02T14:03:16.040Z,10.00
2019-01-02T14:05:50.183Z,10.18
2019-01-02T14:08:21.462Z,9.95
2019-01-02T14:10:51.683Z,9.58
2019-01-02T14:13:22.082Z,9.53
2019-01-02T14:15:52.364Z,10.48
2019-01-02T14:18:22.846Z,9.28
2019-01-02T14:20:53.840Z,9.38
2019-01-02T14:23:24.065Z,9.33
2019-01-02T14:25:54.286Z,8.90
2019-01-02T14:28:24.650Z,9.23
2019-01-02T14:30:55.080Z,9.30
2019-01-02T14:33:26.016Z,8.85
2019-01-02T14:35:56.268Z,8.90
2019-01-02T14:38:26.520Z,9.30
2019-01-02T14:40:56.741Z,8.78
2019-01-02T14:43:26.988Z,8.65
2019-01-02T14:45:57.273Z,8.55
2019-01-02T14:48:27.581Z,8.38
2019-01-02T14:50:57.859Z,8.50
2019-01-02T14:53:28.101Z,8.45
2019-01-02T14:55:58.451Z,7.90
2019-01-02T14:58:28.668Z,8.30
2019-01-02T15:00:58.893Z,8.35
2019-01-02T15:03:29.102Z,7.37
2019-01-02T15:05:59.356Z,6.75
2019-01-02T15:08:29.562Z,6.58
2019-01-02T15:10:59.794Z,5.60
2019-01-02T15:13:30.122Z,5.85
2019-01-02T15:16:00.356Z,6.20
2019-01-02T15:18:30.612Z,6.25
2019-01-02T15:21:00.859Z,5.95
2019-01-02T15:23:31.143Z,6.00
2019-01-02T15:26:01.381Z,5.30
2019-01-02T15:28:31.639Z,5.80
2019-01-02T15:31:01.856Z,4.80
2019-01-02T15:33:32.315Z,5.60
2019-01-02T15:36:02.540Z,5.95
2019-01-02T15:38:32.771Z,8.23
2019-01-02T15:41:03.089Z,9.53
2019-01-02T15:43:33.324Z,11.73
2019-01-02T15:46:03.874Z,21.37
2019-01-02T15:48:34.250Z,19.80
2019-01-02T15:51:05.550Z,14.85
2019-01-02T15:53:35.850Z,20.08
2019-01-02T15:56:06.112Z,19.15
2019-01-02T15:58:36.365Z,20.88
2019-01-02T16:01:06.631Z,18.55
2019-01-02T16:03:36.942Z,17.52
2019-01-02T16:06:07.188Z,17.02
2019-01-02T16:08:37.441Z,16.77
2019-01-02T16:11:07.710Z,16.50
2019-01-02T16:13:38.374Z,16.65
2019-01-02T16:16:08.606Z,16.20
2019-01-02T16:18:38.873Z,15.88
2019-01-02T16:21:09.149Z,15.72
2019-01-02T16:23:41.135Z,15.38
2019-01-02T16:26:11.369Z,15.25
2019-01-02T16:28:41.686Z,14.00
2019-01-02T16:31:11.916Z,15.10
2019-01-02T16:34:07.182Z,14.85
2019-01-02T16:37:14.854Z,14.78
2019-01-02T16:40:07.570Z,13.72
2019-01-02T16:43:06.745Z,13.80
2019-01-02T16:45:39.035Z,22.00
2019-01-02T16:48:09.988Z,29.90
2019-01-02T16:50:41.347Z,31.50
2019-01-02T16:53:12.706Z,27.55
2019-01-02T16:55:43.645Z,32.40
2019-01-02T16:58:15.673Z,30.45
2019-01-02T17:00:46.964Z,31.17
2019-01-02T17:03:19.239Z,30.25
2019-01-02T17:05:50.441Z,28.62
2019-01-02T17:08:21.920Z,27.27
2019-01-02T17:10:53.034Z,25.45
2019-01-02T17:13:24.420Z,23.90
2019-01-02T17:15:55.037Z,23.60
2019-01-02T17:18:27.505Z,22.52
2019-01-02T17:20:59.281Z,24.40
2019-01-02T17:23:30.015Z,26.23
2019-01-02T17:26:01.119Z,25.82
2019-01-02T17:28:32.362Z,31.30
2019-01-02T17:31:03.986Z,39.60
2019-01-02T17:33:35.365Z,35.08
2019-01-02T17:36:06.475Z,36.48
2019-01-02T17:38:37.537Z,35.98
2019-01-02T17:41:08.646Z,32.23
2019-01-02T17:43:40.073Z,34.43
2019-01-02T17:46:11.460Z,38.10
2019-01-02T17:48:42.898Z,39.75
2019-01-02T17:51:13.962Z,39.88
2019-01-02T17:53:44.787Z,38.50
2019-01-02T17:56:16.054Z,36.83
2019-01-02T17:58:46.825Z,37.23
2019-01-02T18:01:17.916Z,36.48
2019-01-02T18:03:48.977Z,37.05
2019-01-02T18:06:20.219Z,39.90
2019-01-02T18:08:51.187Z,36.48
2019-01-02T18:11:22.292Z,35.00
2019-01-02T18:13:53.202Z,34.38
2019-01-02T18:16:24.190Z,35.15
2019-01-02T18:18:55.434Z,36.98
2019-01-02T18:21:27.029Z,44.80
2019-01-02T18:23:58.120Z,47.58
2019-01-02T18:26:29.317Z,48.83
2019-01-02T18:29:00.389Z,47.05
2019-01-02T18:31:31.261Z,49.53
2019-01-02T18:34:02.421Z,47.17
2019-01-02T18:36:33.196Z,48.52
2019-01-02T18:39:05.798Z,45.38
2019-01-02T18:41:37.241Z,47.88
2019-01-02T18:44:08.999Z,44.98
2019-01-02T18:46:41.039Z,45.23
2019-01-02T18:49:12.015Z,45.23
2019-01-02T18:51:43.165Z,43.40
2019-01-02T18:54:14.256Z,43.80
2019-01-02T18:56:45.395Z,42.48
2019-01-02T18:59:24.235Z,43.05
2019-01-02T19:01:55.485Z,42.33
2019-01-02T19:04:26.225Z,40.65
2019-01-02T19:06:57.431Z,38.65
2019-01-02T19:09:28.430Z,43.58
2019-01-02T19:11:59.489Z,50.28
2019-01-02T19:14:30.942Z,50.35
2019-01-02T19:17:02.489Z,51.02
2019-01-02T19:19:33.877Z,53.95
2019-01-02T19:22:05.175Z,52.75
2019-01-02T19:24:36.226Z,54.75
2019-01-02T19:27:07.660Z,51.15
2019-01-02T19:29:38.724Z,51.63
2019-01-02T19:32:10.112Z,51.65
2019-01-02T19:34:41.179Z,48.35
2019-01-02T19:37:12.284Z,47.90
2019-01-02T19:39:43.351Z,49.27
2019-01-02T19:42:14.131Z,49.88
2019-01-02T19:44:45.430Z,48.52
2019-01-02T19:47:16.059Z,48.23
2019-01-02T19:49:46.499Z,46.98
2019-01-02T19:52:16.877Z,45.98
2019-01-02T19:54:47.298Z,44.42
2019-01-02T19:57:17.564Z,44.58
2019-01-02T19:59:48.207Z,45.52
2019-01-02T20:02:18.432Z,48.38
2019-01-02T20:04:48.694Z,47.78
2019-01-02T20:07:20.761Z,48.80
2019-01-02T20:09:51.971Z,50.55
2019-01-02T20:12:22.388Z,54.30
2019-01-02T20:14:53.760Z,51.50
2019-01-02T20:17:24.101Z,51.28
2019-01-02T20:19:54.396Z,51.20
2019-01-02T20:22:24.865Z,52.58
2019-01-02T20:24:55.863Z,57.15
2019-01-02T20:27:26.232Z,53.15
2019-01-02T20:29:56.843Z,55.12
2019-01-02T20:32:27.224Z,54.00
2019-01-02T20:34:57.557Z,53.60
2019-01-02T20:37:27.983Z,54.63
2019-01-02T20:39:58.296Z,54.33
2019-01-02T20:42:28.579Z,54.90
2019-01-02T20:44:59.904Z,53.33
2019-01-02T20:47:30.210Z,54.45
2019-01-02T20:50:00.865Z,51.45
2019-01-02T20:52:31.508Z,51.15
2019-01-02T20:55:01.778Z,49.03
2019-01-02T20:57:32.088Z,45.12
2019-01-02T21:00:02.691Z,45.80
2019-01-02T21:02:33.166Z,44.67
2019-01-02T21:05:03.442Z,42.27
2019-01-02T21:07:33.721Z,42.60
2019-01-02T21:10:05.989Z,39.75
2019-01-02T21:12:39.110Z,41.88
2019-01-02T21:15:10.814Z,36.88
2019-01-02T21:17:42.696Z,40.65
2019-01-02T21:20:13.477Z,44.00
2019-01-02T21:22:43.854Z,46.40
2019-01-02T21:25:14.836Z,51.48
2019-01-02T21:27:49.435Z,51.53
2019-01-02T21:30:21.391Z,50.43
2019-01-02T21:32:52.451Z,50.28
2019-01-02T21:35:24.918Z,48.68
2019-01-02T21:37:55.253Z,50.33
2019-01-02T21:40:25.455Z,50.78
2019-01-02T21:42:56.352Z,50.03
2019-01-02T21:45:27.086Z,51.90
2019-01-02T21:47:57.890Z,50.03
2019-01-02T21:50:28.255Z,49.80
2019-01-02T21:52:58.662Z,49.58
2019-01-02T21:55:29.023Z,48.90
2019-01-02T21:57:59.476Z,47.85
2019-01-02T22:00:29.795Z,48.35
2019-01-02T22:03:00.436Z,48.58
2019-01-02T22:05:30.653Z,48.45
2019-01-02T22:08:00.939Z,47.48
2019-01-02T22:10:31.170Z,46.20
2019-01-02T22:13:06.832Z,45.95
2019-01-02T22:15:37.059Z,44.18
2019-01-02T22:18:09.475Z,47.48
2019-01-02T22:20:41.352Z,60.58
2019-01-02T22:23:11.612Z,68.62
2019-01-02T22:25:41.897Z,71.00
2019-01-02T22:28:12.155Z,72.53
2019-01-02T22:30:42.392Z,74.55
2019-01-02T22:33:12.647Z,71.72
2019-01-02T22:35:43.118Z,69.15
2019-01-02T22:38:13.358Z,68.37
2019-01-02T22:40:44.102Z,68.00
2019-01-02T22:43:14.437Z,64.87
2019-01-02T22:45:44.693Z,67.03
2019-01-02T22:48:15.029Z,66.67
2019-01-02T22:50:45.738Z,62.53
2019-01-02T22:53:15.961Z,63.55
2019-01-02T22:55:46.316Z,63.83
2019-01-02T22:58:16.564Z,62.90
2019-01-02T23:01:05.932Z,61.10
2019-01-02T23:03:57.906Z,62.00
2019-01-02T23:06:45.668Z,59.75
2019-01-02T23:09:33.921Z,60.70
2019-01-02T23:12:22.790Z,60.80
2019-01-02T23:15:28.307Z,58.40
2019-01-02T23:18:15.977Z,57.30
2019-01-02T23:21:13.309Z,57.10
2019-01-02T23:24:01.387Z,57.13
2019-01-02T23:26:49.343Z,54.88
2019-01-02T23:29:37.392Z,55.78
2019-01-02T23:32:25.110Z,56.08
2019-01-02T23:35:23.186Z,54.08
2019-01-02T23:38:15.312Z,54.00
2019-01-02T23:41:10.725Z,52.40
2019-01-02T23:44:02.693Z,52.43
2019-01-02T23:46:50.596Z,51.40
2019-01-02T23:49:39.795Z,51.60
2019-01-02T23:52:24.171Z,49.67
2019-01-02T23:55:16.411Z,48.05
2019-01-02T23:58:05.622Z,50.43
